Time;durP1;ratioP1;P1;durP2;ratioP2;P2;SDS_P1;SDS_P2;PMS_P1;PMS_P2;Temp;Humidity;BMP_temperature;BMP_pressure;BME280_temperature;BME280_humidity;BME280_pressure;Samples;Min_cycle;Max_cycle;Signal;HPM_P1;HPM_P2
2021/12/29 00:01:11;;;;;;;34.50;15.53;;;;;;;-3.80;77.65;100340.40;124986;1105;104088;-77
2021/12/29 00:03:43;;;;;;;37.20;16.03;;;;;;;-3.82;77.17;100343.58;124995;1105;104092;-77
2021/12/29 00:06:12;;;;;;;35.77;16.23;;;;;;;-3.82;77.83;100353.83;124965;1105;103938;-76
2021/12/29 00:08:42;;;;;;;34.60;14.57;;;;;;;-3.85;77.71;100348.42;124974;1102;104003;-76
2021/12/29 00:11:13;;;;;;;38.57;16.57;;;;;;;-3.85;77.56;100349.34;125016;1102;103950;-77
2021/12/29 00:13:43;;;;;;;38.67;17.33;;;;;;;-3.87;77.49;100355.98;124979;1102;102616;-77
2021/12/29 00:16:12;;;;;;;39.43;15.67;;;;;;;-3.85;77.34;100354.48;125109;1102;105444;-77
2021/12/29 00:18:42;;;;;;;39.25;17.45;;;;;;;-3.84;77.69;100365.63;125177;1102;103969;-77
2021/12/29 00:21:14;;;;;;;38.43;17.23;;;;;;;-3.84;77.10;100360.50;125153;1102;104155;-77
2021/12/29 00:23:45;;;;;;;37.00;17.47;;;;;;;-3.82;78.09;100369.22;125198;1102;104396;-77
2021/12/29 00:26:15;;;;;;;40.83;18.63;;;;;;;-3.81;77.36;100371.03;125094;1102;103980;-77
2021/12/29 00:28:44;;;;;;;37.27;18.60;;;;;;;-3.78;77.76;100358.48;125239;1102;103935;-76
2021/12/29 00:31:16;;;;;;;37.00;16.53;;;;;;;-3.78;77.87;100360.16;125143;1101;104178;-76
2021/12/29 00:34:04;;;;;;;40.07;17.23;;;;;;;-3.80;78.05;100352.33;125104;1102;104093;-76
2021/12/29 00:36:53;;;;;;;39.83;17.87;;;;;;;-3.82;78.01;100351.27;125124;1102;103929;-77
2021/12/29 00:39:42;;;;;;;41.67;18.00;;;;;;;-3.81;77.64;100350.52;125206;1102;104005;-77
2021/12/29 00:42:30;;;;;;;36.50;15.87;;;;;;;-3.78;77.70;100344.77;125244;1102;104059;-77
2021/12/29 00:45:35;;;;;;;34.40;15.07;;;;;;;-3.79;77.30;100348.98;125121;1102;104126;-77
2021/12/29 00:48:08;;;;;;;33.43;15.73;;;;;;;-3.84;77.38;100343.44;125098;1102;104037;-76
2021/12/29 00:50:39;;;;;;;40.07;17.37;;;;;;;-3.84;77.99;100347.67;125172;1102;103931;-77
2021/12/29 00:53:09;;;;;;;39.07;18.10;;;;;;;-3.85;77.97;100353.55;125183;1102;103928;-77
2021/12/29 00:55:39;;;;;;;36.30;15.43;;;;;;;-3.86;77.37;100354.34;125141;1102;103951;-77
2021/12/29 00:58:09;;;;;;;37.27;17.03;;;;;;;-3.87;77.44;100355.09;125194;1102;103932;-77
2021/12/29 01:00:40;;;;;;;32.43;15.97;;;;;;;-3.88;77.30;100354.20;125122;1102;104066;-77
2021/12/29 01:03:11;;;;;;;36.20;16.63;;;;;;;-3.90;78.01;100355.70;125144;1102;103929;-77
2021/12/29 01:05:43;;;;;;;36.97;16.87;;;;;;;-3.89;77.64;100348.94;125095;1102;103960;-77
2021/12/29 01:08:13;;;;;;;37.37;16.87;;;;;;;-3.90;78.02;100354.81;125116;1102;103951;-76
2021/12/29 01:10:43;;;;;;;41.57;17.80;;;;;;;-3.91;77.29;100350.44;125171;1102;103946;-77
2021/12/29 01:13:18;;;;;;;34.70;15.60;;;;;;;-3.88;77.13;100354.20;124941;1102;105512;-76
2021/12/29 01:15:58;;;;;;;38.85;17.30;;;;;;;-3.88;77.67;100343.95;124950;1102;104021;-77
2021/12/29 01:18:28;;;;;;;40.03;17.33;;;;;;;-3.89;77.38;100344.70;125215;1102;110855;-76
2021/12/29 01:21:00;;;;;;;34.70;15.93;;;;;;;-3.91;77.58;100338.54;125188;1102;103928;-77
2021/12/29 01:23:30;;;;;;;37.47;17.50;;;;;;;-3.90;77.07;100335.19;125192;1102;104062;-77
2021/12/29 01:26:00;;;;;;;39.27;16.53;;;;;;;-3.89;78.02;100337.00;125101;1102;103928;-76
2021/12/29 01:28:29;;;;;;;36.10;16.37;;;;;;;-3.88;77.99;100343.02;125112;1102;103934;-76
2021/12/29 01:30:59;;;;;;;38.57;16.90;;;;;;;-3.88;77.14;100340.46;125142;1102;103993;-77
2021/12/29 01:33:29;;;;;;;35.40;16.43;;;;;;;-3.87;77.59;100337.14;125178;1102;104069;-76
2021/12/29 01:35:59;;;;;;;33.90;15.00;;;;;;;-3.85;77.97;100333.05;125209;1102;103934;-77
2021/12/29 01:38:29;;;;;;;35.67;15.73;;;;;;;-3.86;77.39;100332.16;125086;1102;104013;-77
2021/12/29 01:40:58;;;;;;;37.17;16.27;;;;;;;-3.86;77.98;100332.16;125184;1102;103951;-77
2021/12/29 01:43:28;;;;;;;36.80;16.63;;;;;;;-3.86;77.51;100333.83;125016;1102;104111;-76
2021/12/29 01:46:00;;;;;;;38.03;17.43;;;;;;;-3.85;77.48;100328.84;125207;1102;104018;-76
2021/12/29 01:48:30;;;;;;;34.83;16.17;;;;;;;-3.85;77.56;100333.05;125130;1102;104054;-76
2021/12/29 01:51:00;;;;;;;34.40;16.57;;;;;;;-3.88;77.93;100332.77;125146;1102;103925;-76
2021/12/29 01:53:32;;;;;;;36.03;15.93;;;;;;;-3.92;77.49;100338.41;125185;1102;104059;-76
2021/12/29 01:56:02;;;;;;;35.63;16.17;;;;;;;-3.91;77.71;100337.62;125186;1102;103935;-76
2021/12/29 01:58:32;;;;;;;37.00;16.50;;;;;;;-3.92;77.23;100333.27;125187;1102;103933;-77
2021/12/29 02:01:03;;;;;;;34.27;15.57;;;;;;;-3.94;77.62;100328.02;125022;1102;104063;-77
2021/12/29 02:03:33;;;;;;;35.23;17.67;;;;;;;-3.97;77.80;100323.50;125097;1102;104148;-77
2021/12/29 02:06:06;;;;;;;38.10;17.73;;;;;;;-3.98;77.82;100326.81;125159;1102;104031;-76
2021/12/29 02:08:35;;;;;;;41.37;17.60;;;;;;;-3.99;77.57;100335.28;125091;1102;103935;-77
2021/12/29 02:11:07;;;;;;;36.47;16.00;;;;;;;-3.99;77.60;100340.41;125166;1102;104070;-76
2021/12/29 02:13:37;;;;;;;37.03;15.97;;;;;;;-3.99;77.65;100342.05;125151;1102;104571;-76
2021/12/29 02:16:07;;;;;;;36.57;16.43;;;;;;;-4.02;77.10;100342.70;125167;1101;103951;-76
2021/12/29 02:18:38;;;;;;;37.83;17.20;;;;;;;-4.02;77.29;100339.21;125166;1102;105268;-76
2021/12/29 02:21:07;;;;;;;35.50;16.13;;;;;;;-4.03;77.95;100339.99;125212;1102;104040;-76
2021/12/29 02:23:54;;;;;;;36.43;16.27;;;;;;;-4.06;77.89;100340.61;125187;1101;103954;-76
2021/12/29 02:26:24;;;;;;;34.27;15.87;;;;;;;-4.08;77.43;100338.66;125207;1102;104400;-76
2021/12/29 02:28:56;;;;;;;38.83;17.73;;;;;;;-4.09;77.39;100337.77;125030;1102;103990;-76
2021/12/29 02:31:28;;;;;;;35.00;16.13;;;;;;;-4.09;77.67;100331.75;125197;1102;103951;-76
2021/12/29 02:34:01;;;;;;;37.17;17.50;;;;;;;-4.09;77.39;100321.50;125137;1102;103938;-76
2021/12/29 02:36:31;;;;;;;35.20;15.63;;;;;;;-4.10;77.29;100312.88;125129;1102;103945;-76
2021/12/29 02:39:03;;;;;;;36.13;17.27;;;;;;;-4.10;77.98;100309.44;125196;1102;104057;-77
2021/12/29 02:41:33;;;;;;;36.27;16.90;;;;;;;-4.10;77.55;100314.55;125084;1102;103938;-77
2021/12/29 02:44:04;;;;;;;34.83;16.53;;;;;;;-4.11;77.17;100305.05;125232;1102;103935;-77
2021/12/29 02:46:36;;;;;;;37.00;15.90;;;;;;;-4.12;77.44;100301.60;125102;1102;103922;-77
2021/12/29 02:49:05;;;;;;;35.47;15.80;;;;;;;-4.12;77.55;100295.59;125122;1101;103980;-77
2021/12/29 02:51:35;;;;;;;34.85;15.65;;;;;;;-4.12;77.65;100306.73;125164;1102;103935;-77
2021/12/29 02:54:05;;;;;;;35.30;15.80;;;;;;;-4.15;77.71;100302.22;125110;1102;103958;-76
2021/12/29 02:56:36;;;;;;;33.00;14.37;;;;;;;-4.17;78.02;100301.19;125186;1102;103945;-77
2021/12/29 02:59:05;;;;;;;34.63;15.40;;;;;;;-4.19;77.78;100295.03;125153;1102;104021;-77
2021/12/29 03:01:39;;;;;;;31.60;14.80;;;;;;;-4.18;77.83;100294.25;125045;1102;104143;-76
2021/12/29 03:04:08;;;;;;;33.40;14.67;;;;;;;-4.17;77.73;100292.61;125211;1102;104358;-76
2021/12/29 03:06:39;;;;;;;29.60;13.13;;;;;;;-4.18;77.50;100299.38;125141;1102;103935;-77
2021/12/29 03:09:11;;;;;;;30.70;12.97;;;;;;;-4.18;77.78;100301.94;125143;1102;103929;-76
2021/12/29 03:11:41;;;;;;;30.73;12.93;;;;;;;-4.20;77.41;100297.45;125104;1101;104053;-76
2021/12/29 03:14:11;;;;;;;29.90;12.33;;;;;;;-4.20;77.71;100297.45;125191;1102;103929;-77
2021/12/29 03:16:41;;;;;;;29.07;12.73;;;;;;;-4.19;77.18;100300.16;125182;1102;104078;-76
2021/12/29 03:19:14;;;;;;;30.47;12.40;;;;;;;-4.19;76.76;100304.36;125136;1102;103980;-76
2021/12/29 03:21:45;;;;;;;26.57;11.47;;;;;;;-4.21;77.05;100309.34;125180;1102;103976;-75
2021/12/29 03:24:15;;;;;;;26.97;11.57;;;;;;;-4.24;77.12;100313.30;125175;1102;104054;-75
2021/12/29 03:26:45;;;;;;;27.53;11.53;;;;;;;-4.27;77.06;100316.51;125164;1102;104043;-76
2021/12/29 03:29:15;;;;;;;25.30;10.60;;;;;;;-4.30;77.36;100303.42;125128;1102;103922;-76
2021/12/29 03:31:44;;;;;;;27.75;11.20;;;;;;;-4.36;76.89;100298.63;125199;1102;104028;-76
2021/12/29 03:34:15;;;;;;;27.60;11.07;;;;;;;-4.39;76.95;100300.91;125125;1102;103931;-76
2021/12/29 03:36:45;;;;;;;27.70;11.67;;;;;;;-4.41;77.25;100307.56;125039;1102;103925;-77
2021/12/29 03:39:14;;;;;;;26.47;10.33;;;;;;;-4.44;77.11;100312.40;125114;1102;103944;-77
2021/12/29 03:41:44;;;;;;;24.70;10.37;;;;;;;-4.48;76.67;100309.42;125163;1102;104143;-77
2021/12/29 03:44:14;;;;;;;29.00;10.80;;;;;;;-4.50;76.72;100306.72;125202;1102;103974;-77
2021/12/29 03:46:43;;;;;;;28.95;12.80;;;;;;;-4.48;77.09;100306.86;125174;1102;104048;-77
2021/12/29 03:49:13;;;;;;;32.77;13.83;;;;;;;-4.50;76.63;100309.27;125110;1102;104031;-77
2021/12/29 03:51:43;;;;;;;27.60;11.93;;;;;;;-4.52;76.76;100308.21;125150;1102;103955;-77
2021/12/29 03:54:12;;;;;;;27.10;10.97;;;;;;;-4.54;76.93;100302.95;125183;1102;103922;-77
2021/12/29 03:56:43;;;;;;;22.87;9.97;;;;;;;-4.56;76.73;100301.03;125119;1102;103977;-77
2021/12/29 03:59:13;;;;;;;26.33;10.53;;;;;;;-4.58;76.73;100312.77;125104;1102;103944;-77
2021/12/29 04:01:50;;;;;;;24.93;9.67;;;;;;;-4.56;76.72;100313.83;125181;1102;110907;-77
2021/12/29 04:04:20;;;;;;;26.30;10.50;;;;;;;-4.58;76.74;100310.20;125194;1102;104005;-77
2021/12/29 04:06:50;;;;;;;23.03;9.57;;;;;;;-4.59;76.66;100308.42;125215;1101;104056;-77
2021/12/29 04:09:21;;;;;;;23.03;9.77;;;;;;;-4.61;76.95;100313.41;125174;1102;104506;-78
2021/12/29 04:11:51;;;;;;;25.70;10.37;;;;;;;-4.62;76.65;100316.72;125204;1102;104024;-76
2021/12/29 04:14:26;;;;;;;25.63;10.07;;;;;;;-4.63;76.57;100314.90;125129;1102;104391;-76
2021/12/29 04:16:57;;;;;;;25.85;8.75;;;;;;;-4.68;76.67;100308.47;125101;1102;104057;-76
2021/12/29 04:19:40;;;;;;;24.47;9.03;;;;;;;-4.71;76.54;100316.75;125155;1102;103932;-76
2021/12/29 04:22:12;;;;;;;23.80;9.47;;;;;;;-4.72;76.75;100317.53;125011;1102;109075;-76
2021/12/29 04:24:42;;;;;;;24.83;9.17;;;;;;;-4.74;76.87;100321.58;125123;1102;103919;-76
2021/12/29 04:27:11;;;;;;;36.33;13.47;;;;;;;-4.73;76.93;100322.51;125144;1102;104044;-76
2021/12/29 04:29:43;;;;;;;42.77;17.73;;;;;;;-4.75;76.71;100324.92;125156;1102;103929;-76
2021/12/29 04:32:13;;;;;;;36.57;15.97;;;;;;;-4.75;76.93;100329.16;125063;1102;104141;-76
2021/12/29 04:34:42;;;;;;;39.40;16.97;;;;;;;-4.76;76.66;100338.47;125163;1102;103942;-76
2021/12/29 04:37:15;;;;;;;26.00;10.30;;;;;;;-4.74;76.63;100338.62;125201;1102;104041;-76
2021/12/29 04:39:44;;;;;;;25.10;9.83;;;;;;;-4.74;76.48;100342.06;125170;1102;104101;-76
2021/12/29 04:42:14;;;;;;;26.53;9.50;;;;;;;-4.75;76.70;100345.41;125109;1102;103957;-76
2021/12/29 04:44:44;;;;;;;24.90;9.37;;;;;;;-4.75;76.72;100350.53;125098;1102;104070;-76
2021/12/29 04:47:13;;;;;;;24.53;9.83;;;;;;;-4.74;76.85;100353.98;125013;1102;104016;-76
2021/12/29 04:49:43;;;;;;;26.63;9.80;;;;;;;-4.75;76.89;100353.09;125119;1102;103960;-76
2021/12/29 04:52:13;;;;;;;23.67;9.30;;;;;;;-4.74;76.86;100353.98;125053;1102;101822;-76
2021/12/29 04:54:43;;;;;;;24.43;9.33;;;;;;;-4.71;76.91;100352.59;125128;1102;104085;-76
2021/12/29 04:57:15;;;;;;;24.17;9.67;;;;;;;-4.68;76.45;100345.98;125137;1102;103923;-76
2021/12/29 04:59:46;;;;;;;25.00;10.43;;;;;;;-4.69;76.79;100347.62;125128;1102;103922;-75
2021/12/29 05:02:15;;;;;;;28.93;9.77;;;;;;;-4.75;76.92;100347.08;125113;1102;104204;-75
2021/12/29 05:04:47;;;;;;;26.20;10.10;;;;;;;-4.78;76.63;100355.36;124932;1102;103190;-76
2021/12/29 05:10:06;;;;;;;22.83;9.07;;;;;;;-4.77;76.48;100351.12;125172;1102;104384;-76
2021/12/29 05:12:36;;;;;;;24.97;10.10;;;;;;;-4.78;76.39;100346.79;125190;1102;103932;-75
2021/12/29 05:15:07;;;;;;;26.93;9.87;;;;;;;-4.78;76.54;100345.13;125046;1102;103993;-75
2021/12/29 05:17:37;;;;;;;23.30;9.73;;;;;;;-4.73;76.71;100353.23;125228;1102;103983;-76
2021/12/29 05:20:10;;;;;;;25.03;9.73;;;;;;;-4.69;76.77;100347.62;125238;1102;103937;-76
2021/12/29 05:22:39;;;;;;;26.03;10.17;;;;;;;-4.66;76.65;100337.66;125103;1102;104078;-76
2021/12/29 05:25:10;;;;;;;25.40;10.53;;;;;;;-4.66;76.93;100340.22;125106;1102;104060;-76
2021/12/29 05:27:42;;;;;;;24.10;9.43;;;;;;;-4.65;76.22;100334.35;125048;1102;104046;-76
2021/12/29 05:30:13;;;;;;;28.63;10.07;;;;;;;-4.65;76.77;100341.14;124908;1102;104098;-76
2021/12/29 05:32:43;;;;;;;25.97;9.90;;;;;;;-4.65;76.47;100347.16;125023;1102;103986;-76
2021/12/29 05:35:15;;;;;;;24.77;10.07;;;;;;;-4.67;75.75;100342.64;125030;1102;103983;-76
2021/12/29 05:37:45;;;;;;;26.33;10.70;;;;;;;-4.68;76.30;100348.54;125057;1102;103971;-76
2021/12/29 05:40:16;;;;;;;24.77;10.03;;;;;;;-4.65;76.55;100356.51;124862;1102;103967;-76
2021/12/29 05:42:47;;;;;;;26.90;10.37;;;;;;;-4.65;75.97;100348.83;125033;1101;103986;-76
2021/12/29 05:45:17;;;;;;;23.53;9.17;;;;;;;-4.63;76.76;100344.73;125059;1102;103954;-77
2021/12/29 05:47:47;;;;;;;26.57;11.10;;;;;;;-4.58;77.04;100346.98;125007;1102;103926;-76
2021/12/29 05:50:20;;;;;;;24.97;10.60;;;;;;;-4.52;76.45;100336.38;125109;1102;103947;-77
2021/12/29 05:52:50;;;;;;;24.33;9.67;;;;;;;-4.49;76.62;100338.34;124986;1102;103963;-77
2021/12/29 05:55:19;;;;;;;25.20;10.43;;;;;;;-4.52;76.40;100344.99;124908;1102;104365;-76
2021/12/29 05:57:49;;;;;;;25.37;10.43;;;;;;;-4.49;76.86;100354.59;125103;1102;104010;-76
2021/12/29 06:00:21;;;;;;;23.27;9.17;;;;;;;-4.46;76.29;100360.00;125157;1102;105216;-76
2021/12/29 06:02:51;;;;;;;26.93;10.57;;;;;;;-4.45;76.40;100366.94;124987;1102;103950;-76
2021/12/29 06:05:23;;;;;;;25.03;10.07;;;;;;;-4.39;76.89;100369.18;125158;1102;103928;-75
2021/12/29 06:07:53;;;;;;;23.57;9.80;;;;;;;-4.35;76.37;100371.24;125020;1102;103964;-76
2021/12/29 06:10:22;;;;;;;23.27;9.90;;;;;;;-4.34;76.77;100373.05;124870;1102;103958;-77
2021/12/29 06:12:54;;;;;;;26.40;10.57;;;;;;;-4.29;76.56;100378.61;124814;1102;104076;-76
2021/12/29 06:15:24;;;;;;;27.83;11.27;;;;;;;-4.27;76.80;100378.00;125020;1102;104126;-76
2021/12/29 06:17:55;;;;;;;24.93;10.10;;;;;;;-4.26;76.70;100373.77;125056;1102;103931;-77
2021/12/29 06:20:25;;;;;;;22.47;9.27;;;;;;;-4.28;76.09;100385.55;125038;1102;103952;-78
2021/12/29 06:22:55;;;;;;;26.77;10.13;;;;;;;-4.33;76.32;100390.24;124935;1102;103957;-78
2021/12/29 06:25:29;;;;;;;24.47;9.97;;;;;;;-4.38;75.98;100387.25;124990;1102;103957;-76
2021/12/29 06:27:58;;;;;;;20.50;8.28;;;;;;;-4.40;76.53;100401.56;125009;1102;104009;-76
2021/12/29 06:30:28;;;;;;;27.63;11.10;;;;;;;-4.40;75.93;100405.79;125102;1102;104057;-77
2021/12/29 06:32:58;;;;;;;28.60;10.83;;;;;;;-4.37;77.02;100406.97;125014;1102;105333;-76
2021/12/29 06:35:28;;;;;;;26.53;11.07;;;;;;;-4.32;76.13;100406.50;124898;1106;104079;-75
2021/12/29 06:37:58;;;;;;;31.13;11.67;;;;;;;-4.34;76.54;100407.25;124747;1105;104187;-77
2021/12/29 06:40:28;;;;;;;27.67;11.67;;;;;;;-4.35;76.20;100425.04;124867;1106;104249;-76
2021/12/29 06:42:59;;;;;;;28.90;12.37;;;;;;;-4.33;75.92;100423.55;124799;1105;104012;-76
2021/12/29 06:45:29;;;;;;;31.57;13.17;;;;;;;-4.28;76.14;100427.42;124829;1105;104043;-75
2021/12/29 06:47:59;;;;;;;35.57;14.20;;;;;;;-4.20;76.19;100413.66;124725;1105;103998;-75
2021/12/29 06:50:33;;;;;;;29.90;14.03;;;;;;;-4.12;76.10;100404.11;124800;1105;104126;-76
2021/12/29 06:53:04;;;;;;;;;;;;;;;-4.06;76.52;100398.66;124742;1105;105155;-75
2021/12/29 06:55:34;;;;;;;27.67;12.37;;;;;;;-4.02;76.75;100401.65;124759;1105;104231;-76
2021/12/29 06:58:04;;;;;;;28.20;12.30;;;;;;;-3.99;76.25;100398.44;124780;1105;104222;-76
2021/12/29 07:00:34;;;;;;;30.27;13.03;;;;;;;-3.93;76.16;100400.68;124783;1106;103964;-77
2021/12/29 07:03:05;;;;;;;29.10;12.93;;;;;;;-3.88;76.89;100399.42;124761;1105;104181;-77
2021/12/29 07:05:35;;;;;;;28.25;13.40;;;;;;;-3.84;76.93;100401.52;124645;1105;107209;-76
2021/12/29 07:08:07;;;;;;;29.43;12.70;;;;;;;-3.82;76.75;100400.91;124711;1102;104063;-76
2021/12/29 07:10:36;;;;;;;32.30;14.80;;;;;;;-3.80;75.93;100398.48;124669;1105;104006;-76
2021/12/29 07:13:07;;;;;;;32.50;15.33;;;;;;;-3.73;76.05;100397.36;124816;1102;103944;-75
2021/12/29 07:15:38;;;;;;;30.70;14.10;;;;;;;-3.66;76.29;100397.13;125044;1102;119954;-76
2021/12/29 07:18:09;;;;;;;32.70;14.77;;;;;;;-3.59;76.81;100386.67;124977;1102;104064;-75
2021/12/29 07:20:39;;;;;;;32.30;14.07;;;;;;;-3.51;76.49;100385.69;125031;1102;104050;-76
2021/12/29 07:23:09;;;;;;;29.67;13.33;;;;;;;-3.45;76.03;100391.37;124903;1101;104098;-75
2021/12/29 07:25:40;;;;;;;30.55;12.50;;;;;;;-3.39;77.21;100391.03;124870;1103;104056;-79
2021/12/29 07:28:10;;;;;;;28.10;12.40;;;;;;;-3.35;76.31;100385.41;125057;1102;104099;-77
2021/12/29 07:33:23;;;;;;;;;;;;;;;-3.32;76.19;100390.81;124897;1102;104076;-77
2021/12/29 07:35:54;;;;;;;28.95;12.75;;;;;;;-3.35;75.82;100390.55;124885;1102;103970;-78
2021/12/29 07:38:38;;;;;;;29.67;12.03;;;;;;;-3.30;75.99;100398.66;124804;1102;103981;-78
2021/12/29 07:41:11;;;;;;;28.55;14.35;;;;;;;-3.36;75.77;100385.28;124776;1102;103954;-77
2021/12/29 07:43:45;;;;;;;32.43;13.83;;;;;;;-3.24;76.82;100401.77;124856;1103;104033;-79
2021/12/29 07:46:15;;;;;;;32.80;14.68;;;;;;;-3.22;76.22;100410.49;124879;1102;103929;-78
2021/12/29 07:48:47;;;;;;;28.90;13.53;;;;;;;-3.16;76.17;100399.87;124961;1102;103960;-78
2021/12/29 07:51:20;;;;;;;31.23;14.17;;;;;;;-3.13;76.46;100406.17;124958;1102;103954;-80
2021/12/29 07:53:54;;;;;;;33.73;15.08;;;;;;;-3.07;76.47;100404.14;125040;1102;103929;-78
2021/12/29 07:56:26;;;;;;;32.50;13.60;;;;;;;-3.03;76.46;100397.60;124926;1102;104050;-77
2021/12/29 07:58:57;;;;;;;33.67;14.57;;;;;;;-3.01;76.35;100398.62;124941;1102;103996;-79
2021/12/29 08:01:28;;;;;;;29.27;14.40;;;;;;;-2.98;76.77;100409.16;124679;1103;103963;-78
2021/12/29 08:04:01;;;;;;;32.07;14.10;;;;;;;-2.98;76.27;100414.30;124939;1102;103950;-79
2021/12/29 08:06:31;;;;;;;29.43;13.73;;;;;;;-2.98;75.97;100409.16;125005;1102;103932;-77
2021/12/29 08:09:01;;;;;;;31.13;14.67;;;;;;;-2.95;76.72;100405.98;124844;1102;103961;-80
2021/12/29 08:11:32;;;;;;;31.90;14.30;;;;;;;-2.91;75.66;100408.95;124724;1105;104490;-79
2021/12/29 08:14:03;;;;;;;32.30;14.27;;;;;;;-2.86;76.53;100404.22;124905;1102;103980;-79
2021/12/29 08:16:36;;;;;;;33.80;14.17;;;;;;;-2.83;76.72;100395.89;124946;1102;103954;-79
2021/12/29 08:19:08;;;;;;;35.23;14.85;;;;;;;-2.80;76.77;100401.30;124700;1105;104053;-80
2021/12/29 08:21:41;;;;;;;28.13;14.40;;;;;;;-2.80;75.71;100393.59;125004;1102;103980;-78
2021/12/29 08:24:17;;;;;;;30.20;14.17;;;;;;;-2.77;76.49;100391.29;125020;1102;103957;-78
2021/12/29 08:26:47;;;;;;;29.87;14.03;;;;;;;-2.72;76.27;100392.58;124932;1102;103955;-79
2021/12/29 08:29:24;;;;;;;34.47;14.97;;;;;;;-2.67;76.66;100398.11;125033;1102;103970;-79
2021/12/29 08:32:00;;;;;;;29.33;13.83;;;;;;;-2.68;76.45;100376.67;124972;1102;102999;-80
2021/12/29 08:34:31;;;;;;;33.27;14.70;;;;;;;-2.63;76.61;100389.91;124955;1101;104762;-79
2021/12/29 08:37:03;;;;;;;38.20;16.23;;;;;;;-2.67;75.18;100387.84;124930;1101;104085;-78
2021/12/29 08:39:45;;;;;;;38.27;17.43;;;;;;;-2.76;75.66;100387.93;124832;1105;104410;-79
2021/12/29 08:45:21;;;;;;;40.67;19.97;;;;;;;-2.87;75.47;100391.24;124868;1103;103990;-79
2021/12/29 08:47:59;;;;;;;42.33;20.10;;;;;;;-2.97;74.43;100375.03;124836;1102;107381;-79
2021/12/29 08:50:34;;;;;;;38.73;19.47;;;;;;;-2.95;74.99;100382.87;124874;1105;104034;-79
2021/12/29 08:53:08;;;;;;;37.77;18.23;;;;;;;-2.89;76.14;100373.14;124883;1102;103916;-77
2021/12/29 08:55:46;;;;;;;;;;;;;;;-2.81;75.14;100364.41;125016;1102;104034;-77
2021/12/29 08:58:18;;;;;;;29.50;13.80;;;;;;;-2.74;75.48;100373.58;125021;1102;118796;-78
2021/12/29 09:00:54;;;;;;;32.53;14.80;;;;;;;-2.65;76.06;100373.45;124993;1102;103951;-78
2021/12/29 09:06:13;;;;;;;31.13;14.20;;;;;;;-2.54;76.40;100359.84;125081;1102;103948;-77
2021/12/29 09:08:47;;;;;;;28.60;12.80;;;;;;;-2.46;75.33;100357.92;124959;1102;104069;-76
2021/12/29 09:11:20;;;;;;;32.80;15.58;;;;;;;-2.37;76.54;100356.13;125086;1102;103944;-77
2021/12/29 09:13:53;;;;;;;33.40;14.43;;;;;;;-2.30;76.04;100355.89;125090;1102;104046;-79
2021/12/29 09:16:26;;;;;;;35.53;17.47;;;;;;;-2.31;76.07;100355.77;124898;1102;103951;-78
2021/12/29 09:19:04;;;;;;;37.37;17.20;;;;;;;-2.30;74.97;100352.44;124762;1106;103957;-77
2021/12/29 09:21:35;;;;;;;38.20;18.17;;;;;;;-2.29;75.74;100349.99;124870;1105;103932;-77
2021/12/29 09:24:07;;;;;;;37.77;18.73;;;;;;;-2.30;75.05;100348.19;124938;1105;104274;-77
2021/12/29 09:26:37;;;;;;;36.47;16.80;;;;;;;-2.30;75.03;100355.00;124730;1105;104006;-78
2021/12/29 09:29:07;;;;;;;35.67;16.10;;;;;;;-2.23;76.03;100362.44;124828;1105;104184;-78
2021/12/29 09:31:44;;;;;;;34.50;15.70;;;;;;;-2.22;76.33;100361.68;124837;1106;104111;-78
2021/12/29 09:34:16;;;;;;;29.33;13.23;;;;;;;-2.19;75.64;100355.11;124813;1105;104047;-80
2021/12/29 09:36:48;;;;;;;34.90;15.50;;;;;;;-2.30;74.71;100358.47;124845;1105;103938;-78
2021/12/29 09:39:18;;;;;;;32.27;15.00;;;;;;;-2.41;75.60;100351.53;124875;1105;104066;-79
2021/12/29 09:41:48;;;;;;;30.03;13.67;;;;;;;-2.45;75.46;100346.89;124945;1105;104102;-78
2021/12/29 09:44:22;;;;;;;31.47;13.57;;;;;;;-2.42;76.15;100348.03;124916;1106;103998;-79
2021/12/29 09:46:54;;;;;;;31.60;14.20;;;;;;;-2.38;75.83;100350.11;124910;1105;103938;-80
2021/12/29 09:49:33;;;;;;;30.90;14.60;;;;;;;-2.39;74.31;100355.11;124872;1106;103964;-79
2021/12/29 09:52:04;;;;;;;32.40;13.65;;;;;;;-2.43;74.65;100350.47;124868;1102;103954;-80
2021/12/29 09:54:34;;;;;;;32.77;13.73;;;;;;;-2.58;75.19;100352.66;124896;1103;103928;-78
2021/12/29 09:57:06;;;;;;;31.77;15.50;;;;;;;-2.65;75.14;100352.89;124829;1105;103980;-79
2021/12/29 09:59:36;;;;;;;34.63;15.10;;;;;;;-2.71;74.28;100350.72;124961;1102;103980;-78
2021/12/29 10:02:08;;;;;;;35.10;15.63;;;;;;;-2.70;75.08;100344.80;124986;1100;104140;-79
2021/12/29 10:04:40;;;;;;;31.17;13.33;;;;;;;-2.69;74.67;100346.60;124949;1102;104108;-79
2021/12/29 10:07:17;;;;;;;29.73;14.40;;;;;;;-2.70;75.10;100347.36;124878;1105;103954;-79
2021/12/29 10:09:52;;;;;;;34.33;14.77;;;;;;;-2.69;75.63;100344.03;125038;1102;111084;-79
2021/12/29 10:12:25;;;;;;;33.37;16.43;;;;;;;-2.69;75.33;100343.15;124831;1102;104060;-80
2021/12/29 10:14:59;;;;;;;34.75;15.05;;;;;;;-2.75;74.74;100336.70;124778;1102;104134;-78
2021/12/29 10:17:33;;;;;;;32.43;15.17;;;;;;;-2.71;75.75;100343.91;124874;1102;103966;-77
2021/12/29 10:20:06;;;;;;;34.20;14.80;;;;;;;-2.67;75.84;100339.92;124826;1102;104066;-77
2021/12/29 10:22:37;;;;;;;32.87;14.77;;;;;;;-2.67;75.55;100345.05;124757;1102;104050;-78
2021/12/29 10:25:16;;;;;;;34.90;15.37;;;;;;;-2.69;75.06;100335.44;124947;1102;104011;-78
2021/12/29 10:27:49;;;;;;;32.27;14.20;;;;;;;-2.65;75.77;100330.70;124881;1102;104380;-79
2021/12/29 10:30:25;;;;;;;33.00;14.75;;;;;;;-2.66;75.81;100323.75;124712;1105;107514;-78
2021/12/29 10:33:09;;;;;;;33.37;14.43;;;;;;;-2.65;75.42;100329.78;124829;1102;103964;-78
2021/12/29 10:35:43;;;;;;;32.63;15.30;;;;;;;-2.63;75.60;100331.72;124817;1102;104037;-77
2021/12/29 10:38:20;;;;;;;33.63;14.87;;;;;;;-2.58;74.75;100316.69;124678;1102;103990;-78
2021/12/29 10:40:56;;;;;;;32.53;14.17;;;;;;;-2.55;75.60;100322.09;124954;1102;104107;-78
2021/12/29 10:43:26;;;;;;;30.90;14.20;;;;;;;-2.60;74.63;100313.08;124942;1102;104133;-78
2021/12/29 10:46:01;;;;;;;34.57;14.50;;;;;;;-2.67;75.10;100314.23;125003;1102;104050;-79
2021/12/29 10:48:32;;;;;;;32.37;14.70;;;;;;;-2.71;75.55;100312.20;124834;1102;103960;-79
2021/12/29 10:51:09;;;;;;;31.90;14.83;;;;;;;-2.68;74.94;100303.83;125005;1102;104099;-78
2021/12/29 10:53:44;;;;;;;32.80;14.90;;;;;;;-2.75;75.29;100298.17;125014;1102;104088;-80
2021/12/29 10:56:23;;;;;;;35.47;16.30;;;;;;;-2.79;74.90;100305.48;124844;1102;104086;-78
2021/12/29 10:58:56;;;;;;;33.90;15.93;;;;;;;-2.77;74.94;100286.88;125020;1102;102538;-80
2021/12/29 11:01:41;;;;;;;36.20;16.27;;;;;;;-2.73;75.30;100290.59;124822;1105;103932;-80
2021/12/29 11:04:16;;;;;;;34.93;15.90;;;;;;;-2.66;75.75;100292.92;125015;1102;103964;-80
2021/12/29 11:06:47;;;;;;;33.70;15.90;;;;;;;-2.59;75.59;100286.62;124753;1105;104024;-80
2021/12/29 11:09:26;;;;;;;36.13;16.53;;;;;;;-2.49;75.24;100285.72;124648;1102;103929;-79
2021/12/29 11:15:39;;;;;;;31.97;15.27;;;;;;;-2.41;74.83;100288.17;124770;1102;104407;-79
2021/12/29 11:18:12;;;;;;;34.95;15.78;;;;;;;-2.38;75.01;100292.67;124819;1102;104072;-79
2021/12/29 11:20:42;;;;;;;34.90;16.70;;;;;;;-2.32;75.83;100289.70;124930;1102;104174;-78
2021/12/29 11:23:16;;;;;;;37.70;16.97;;;;;;;-2.29;75.55;100280.59;124696;1103;105097;-80
2021/12/29 11:25:46;;;;;;;36.53;16.57;;;;;;;-2.28;75.67;100287.52;124942;1102;103961;-77
2021/12/29 11:28:24;;;;;;;33.17;16.00;;;;;;;-2.31;75.16;100289.83;124775;1102;103983;-78
2021/12/29 11:30:58;;;;;;;36.77;18.10;;;;;;;-2.35;75.53;100283.55;124754;1102;103944;-79